sensor_id;sensor_type;location;lat;lon;timestamp;pressure;altitude;pressure_sealevel;temperature;humidity
60055;BME280;45930;53.514;55.904;2023-07-31T00:00:50;48906.16;;;-149.77;75.65
60055;BME280;45930;53.514;55.904;2023-07-31T00:01:51;48850.72;;;-149.77;76.58
60055;BME280;45930;53.514;55.904;2023-07-31T00:02:52;48848.72;;;-149.77;76.45
60055;BME280;45930;53.514;55.904;2023-07-31T00:03:53;48819.03;;;-149.77;77.08
60055;BME280;45930;53.514;55.904;2023-07-31T00:04:53;48793.28;;;-149.77;77.59
60055;BME280;45930;53.514;55.904;2023-07-31T00:05:54;48817.03;;;-149.77;78.15
60055;BME280;45930;53.514;55.904;2023-07-31T00:06:55;48755.66;;;-149.77;79.00
60055;BME280;45930;53.514;55.904;2023-07-31T00:07:56;48751.69;;;-149.77;79.82
60055;BME280;45930;53.514;55.904;2023-07-31T00:08:57;48710.09;;;-149.77;80.51
60055;BME280;45930;53.514;55.904;2023-07-31T00:09:58;48690.28;;;-149.77;80.96
60055;BME280;45930;53.514;55.904;2023-07-31T00:10:58;48704.16;;;-149.77;81.53
60055;BME280;45930;53.514;55.904;2023-07-31T00:11:59;48664.53;;;-149.77;82.06
60055;BME280;45930;53.514;55.904;2023-07-31T00:13:00;48634.84;;;-149.77;82.50
60055;BME280;45930;53.514;55.904;2023-07-31T00:14:01;48652.66;;;-149.77;83.35
60055;BME280;45930;53.514;55.904;2023-07-31T00:15:02;48575.41;;;-149.77;85.00
60055;BME280;45930;53.514;55.904;2023-07-31T00:16:06;48587.31;;;-149.77;85.94
60055;BME280;45930;53.514;55.904;2023-07-31T00:17:07;48537.78;;;-149.77;86.31
60055;BME280;45930;53.514;55.904;2023-07-31T00:18:07;48525.91;;;-149.77;86.79
60055;BME280;45930;53.514;55.904;2023-07-31T00:19:08;48571.47;;;-149.77;86.59
60055;BME280;45930;53.514;55.904;2023-07-31T00:20:10;48551.66;;;-149.77;86.70
60055;BME280;45930;53.514;55.904;2023-07-31T00:21:10;48551.66;;;-149.77;86.32
60055;BME280;45930;53.514;55.904;2023-07-31T00:22:12;48573.44;;;-149.77;86.17
60055;BME280;45930;53.514;55.904;2023-07-31T00:23:12;48565.53;;;-149.77;86.17
60055;BME280;45930;53.514;55.904;2023-07-31T00:24:13;48553.63;;;-149.77;86.25
60055;BME280;45930;53.514;55.904;2023-07-31T00:25:14;48547.69;;;-149.77;86.02
60055;BME280;45930;53.514;55.904;2023-07-31T00:26:15;48543.75;;;-149.77;86.00
60055;BME280;45930;53.514;55.904;2023-07-31T00:27:16;48575.41;;;-149.77;86.33
60055;BME280;45930;53.514;55.904;2023-07-31T00:28:17;48559.59;;;-149.77;87.06
60055;BME280;45930;53.514;55.904;2023-07-31T00:29:18;48533.84;;;-149.77;87.92
60055;BME280;45930;53.514;55.904;2023-07-31T00:30:19;48510.06;;;-149.77;88.59
60055;BME280;45930;53.514;55.904;2023-07-31T00:31:19;48478.38;;;-149.77;89.29
60055;BME280;45930;53.514;55.904;2023-07-31T00:32:20;48462.53;;;-149.77;89.52
60055;BME280;45930;53.514;55.904;2023-07-31T00:33:21;48482.34;;;-149.77;89.93
60055;BME280;45930;53.514;55.904;2023-07-31T00:34:22;48478.38;;;-149.77;90.14
60055;BME280;45930;53.514;55.904;2023-07-31T00:35:23;48490.25;;;-149.77;90.08
60055;BME280;45930;53.514;55.904;2023-07-31T00:36:23;48488.28;;;-149.77;90.24
60055;BME280;45930;53.514;55.904;2023-07-31T00:37:24;48462.53;;;-149.77;90.00
60055;BME280;45930;53.514;55.904;2023-07-31T00:38:25;48494.22;;;-149.77;90.33
60055;BME280;45930;53.514;55.904;2023-07-31T00:39:26;48456.59;;;-149.77;90.41
60055;BME280;45930;53.514;55.904;2023-07-31T00:40:27;48464.53;;;-149.77;90.65
60055;BME280;45930;53.514;55.904;2023-07-31T00:41:27;48482.34;;;-149.77;91.09
60055;BME280;45930;53.514;55.904;2023-07-31T00:42:28;48462.53;;;-149.77;91.17
60055;BME280;45930;53.514;55.904;2023-07-31T00:43:29;48468.47;;;-149.77;91.53
60055;BME280;45930;53.514;55.904;2023-07-31T00:44:30;48452.63;;;-149.77;91.24
60055;BME280;45930;53.514;55.904;2023-07-31T00:45:31;48474.41;;;-149.77;91.23
60055;BME280;45930;53.514;55.904;2023-07-31T00:46:32;48500.16;;;-149.77;91.06
60055;BME280;45930;53.514;55.904;2023-07-31T00:47:33;48486.31;;;-149.77;91.03
60055;BME280;45930;53.514;55.904;2023-07-31T00:48:34;48494.22;;;-149.77;90.67
60055;BME280;45930;53.514;55.904;2023-07-31T00:49:36;48486.31;;;-149.77;90.56
60055;BME280;45930;53.514;55.904;2023-07-31T00:50:37;48478.38;;;-149.77;91.08
60055;BME280;45930;53.514;55.904;2023-07-31T00:51:39;48486.31;;;-149.77;91.49
60055;BME280;45930;53.514;55.904;2023-07-31T00:52:40;48488.28;;;-149.77;91.70
60055;BME280;45930;53.514;55.904;2023-07-31T00:53:41;48488.28;;;-149.77;92.15
60055;BME280;45930;53.514;55.904;2023-07-31T00:54:42;48494.22;;;-149.77;91.92
60055;BME280;45930;53.514;55.904;2023-07-31T00:55:43;48470.47;;;-149.77;92.23
60055;BME280;45930;53.514;55.904;2023-07-31T00:56:45;48482.34;;;-149.77;92.05
60055;BME280;45930;53.514;55.904;2023-07-31T00:57:49;48468.47;;;-149.77;92.09
60055;BME280;45930;53.514;55.904;2023-07-31T00:58:50;48462.53;;;-149.77;91.73
60055;BME280;45930;53.514;55.904;2023-07-31T00:59:51;48464.53;;;-149.77;92.15
60055;BME280;45930;53.514;55.904;2023-07-31T01:00:52;48464.53;;;-149.77;92.41
60055;BME280;45930;53.514;55.904;2023-07-31T01:01:54;48486.31;;;-149.77;92.49
60055;BME280;45930;53.514;55.904;2023-07-31T01:02:54;48488.28;;;-149.77;92.63
60055;BME280;45930;53.514;55.904;2023-07-31T01:03:55;48466.50;;;-149.77;92.54
60055;BME280;45930;53.514;55.904;2023-07-31T01:04:56;48494.22;;;-149.77;92.80
60055;BME280;45930;53.514;55.904;2023-07-31T01:06:02;48480.38;;;-149.77;92.42
60055;BME280;45930;53.514;55.904;2023-07-31T01:07:24;48488.28;;;-149.77;91.27
60055;BME280;45930;53.514;55.904;2023-07-31T01:08:46;48484.31;;;-149.77;91.72
60055;BME280;45930;53.514;55.904;2023-07-31T01:11:15;48500.16;;;-149.77;91.08
60055;BME280;45930;53.514;55.904;2023-07-31T01:12:16;48492.25;;;-149.77;90.18
60055;BME280;45930;53.514;55.904;2023-07-31T01:13:18;48498.19;;;-149.77;90.74
60055;BME280;45930;53.514;55.904;2023-07-31T01:14:19;48500.16;;;-149.77;90.72
60055;BME280;45930;53.514;55.904;2023-07-31T01:15:20;48508.09;;;-149.77;91.08
60055;BME280;45930;53.514;55.904;2023-07-31T01:16:21;48482.34;;;-149.77;91.38
60055;BME280;45930;53.514;55.904;2023-07-31T01:17:22;48549.69;;;-149.77;88.05
60055;BME280;45930;53.514;55.904;2023-07-31T01:18:23;48523.94;;;-149.77;89.51
60055;BME280;45930;53.514;55.904;2023-07-31T01:19:25;48510.06;;;-149.77;90.03
60055;BME280;45930;53.514;55.904;2023-07-31T01:20:32;48508.09;;;-149.77;89.89
60055;BME280;45930;53.514;55.904;2023-07-31T01:24:35;48553.63;;;-149.77;88.52
60055;BME280;45930;53.514;55.904;2023-07-31T01:26:00;48531.84;;;-149.77;89.06
60055;BME280;45930;53.514;55.904;2023-07-31T01:27:11;48555.63;;;-149.77;88.72
60055;BME280;45930;53.514;55.904;2023-07-31T01:28:17;48541.75;;;-149.77;88.62
60055;BME280;45930;53.514;55.904;2023-07-31T01:29:34;48545.72;;;-149.77;88.11
60055;BME280;45930;53.514;55.904;2023-07-31T01:30:43;48567.50;;;-149.77;88.28
60055;BME280;45930;53.514;55.904;2023-07-31T01:31:48;48537.78;;;-149.77;88.31
60055;BME280;45930;53.514;55.904;2023-07-31T01:32:51;48531.84;;;-149.77;88.27
60055;BME280;45930;53.514;55.904;2023-07-31T01:33:54;48543.75;;;-149.77;87.83
60055;BME280;45930;53.514;55.904;2023-07-31T01:34:58;48525.91;;;-149.77;87.49
60055;BME280;45930;53.514;55.904;2023-07-31T01:36:00;48553.63;;;-149.77;87.53
60055;BME280;45930;53.514;55.904;2023-07-31T01:37:01;48535.81;;;-149.77;87.70
60055;BME280;45930;53.514;55.904;2023-07-31T01:38:02;48533.84;;;-149.77;87.53
60055;BME280;45930;53.514;55.904;2023-07-31T01:39:03;48525.91;;;-149.77;87.81
60055;BME280;45930;53.514;55.904;2023-07-31T01:40:05;48565.53;;;-149.77;88.00
60055;BME280;45930;53.514;55.904;2023-07-31T01:41:07;48535.81;;;-149.77;87.94
60055;BME280;45930;53.514;55.904;2023-07-31T01:42:08;48545.72;;;-149.77;87.99
60055;BME280;45930;53.514;55.904;2023-07-31T01:43:09;48545.72;;;-149.77;88.10
60055;BME280;45930;53.514;55.904;2023-07-31T01:44:09;48529.88;;;-149.77;87.82
60055;BME280;45930;53.514;55.904;2023-07-31T01:45:11;48569.47;;;-149.77;87.71
60055;BME280;45930;53.514;55.904;2023-07-31T01:46:12;48514.03;;;-149.77;87.53
60055;BME280;45930;53.514;55.904;2023-07-31T01:47:13;48559.59;;;-149.77;87.18
60055;BME280;45930;53.514;55.904;2023-07-31T01:48:13;48587.31;;;-149.77;86.26
60055;BME280;45930;53.514;55.904;2023-07-31T01:49:14;48569.47;;;-149.77;86.89
60055;BME280;45930;53.514;55.904;2023-07-31T01:50:15;48561.56;;;-149.77;86.79
60055;BME280;45930;53.514;55.904;2023-07-31T01:51:16;48567.50;;;-149.77;86.81
60055;BME280;45930;53.514;55.904;2023-07-31T01:52:17;48583.34;;;-149.77;86.80
60055;BME280;45930;53.514;55.904;2023-07-31T01:53:18;48567.50;;;-149.77;86.62
60055;BME280;45930;53.514;55.904;2023-07-31T01:54:18;48579.38;;;-149.77;86.66
60055;BME280;45930;53.514;55.904;2023-07-31T01:55:19;48585.31;;;-149.77;86.41
60055;BME280;45930;53.514;55.904;2023-07-31T01:56:20;48579.38;;;-149.77;86.15
60055;BME280;45930;53.514;55.904;2023-07-31T01:57:21;48577.41;;;-149.77;86.14
60055;BME280;45930;53.514;55.904;2023-07-31T01:58:21;48591.28;;;-149.77;85.96
60055;BME280;45930;53.514;55.904;2023-07-31T01:59:22;48581.38;;;-149.77;86.02
60055;BME280;45930;53.514;55.904;2023-07-31T02:00:23;48587.31;;;-149.77;86.19
60055;BME280;45930;53.514;55.904;2023-07-31T02:01:24;48589.28;;;-149.77;86.30
60055;BME280;45930;53.514;55.904;2023-07-31T02:02:25;48595.22;;;-149.77;86.55
60055;BME280;45930;53.514;55.904;2023-07-31T02:03:25;48559.59;;;-149.77;86.43
60055;BME280;45930;53.514;55.904;2023-07-31T02:04:26;48587.31;;;-149.77;86.48
60055;BME280;45930;53.514;55.904;2023-07-31T02:05:27;48581.38;;;-149.77;85.73
60055;BME280;45930;53.514;55.904;2023-07-31T02:06:28;48601.16;;;-149.77;85.06
60055;BME280;45930;53.514;55.904;2023-07-31T02:07:29;48589.28;;;-149.77;84.60
60055;BME280;45930;53.514;55.904;2023-07-31T02:08:30;48644.75;;;-149.77;83.49
60055;BME280;45930;53.514;55.904;2023-07-31T02:09:31;48668.50;;;-149.77;82.54
60055;BME280;45930;53.514;55.904;2023-07-31T02:10:31;48662.56;;;-149.77;82.38
60055;BME280;45930;53.514;55.904;2023-07-31T02:11:32;48674.44;;;-149.77;82.04
60055;BME280;45930;53.514;55.904;2023-07-31T02:12:33;48698.22;;;-149.77;81.97
60055;BME280;45930;53.514;55.904;2023-07-31T02:13:35;48672.47;;;-149.77;82.34
60055;BME280;45930;53.514;55.904;2023-07-31T02:14:36;48656.63;;;-149.77;82.92
60055;BME280;45930;53.514;55.904;2023-07-31T02:15:37;48644.75;;;-149.77;82.96
60055;BME280;45930;53.514;55.904;2023-07-31T02:16:38;48648.69;;;-149.77;82.26
60055;BME280;45930;53.514;55.904;2023-07-31T02:17:39;48644.75;;;-149.77;82.17
60055;BME280;45930;53.514;55.904;2023-07-31T02:18:40;48648.69;;;-149.77;82.38
60055;BME280;45930;53.514;55.904;2023-07-31T02:19:41;48662.56;;;-149.77;82.41
60055;BME280;45930;53.514;55.904;2023-07-31T02:20:41;48680.38;;;-149.77;82.43
60055;BME280;45930;53.514;55.904;2023-07-31T02:21:42;48686.34;;;-149.77;81.87
60055;BME280;45930;53.514;55.904;2023-07-31T02:22:43;48660.59;;;-149.77;82.21
60055;BME280;45930;53.514;55.904;2023-07-31T02:23:44;48676.44;;;-149.77;81.92
60055;BME280;45930;53.514;55.904;2023-07-31T02:24:45;48702.19;;;-149.77;81.91
60055;BME280;45930;53.514;55.904;2023-07-31T02:25:46;48672.47;;;-149.77;82.07
60055;BME280;45930;53.514;55.904;2023-07-31T02:26:47;48662.56;;;-149.77;81.82
60055;BME280;45930;53.514;55.904;2023-07-31T02:27:47;48688.31;;;-149.77;81.90
60055;BME280;45930;53.514;55.904;2023-07-31T02:28:48;48678.41;;;-149.77;82.17
60055;BME280;45930;53.514;55.904;2023-07-31T02:29:49;48684.34;;;-149.77;81.97
60055;BME280;45930;53.514;55.904;2023-07-31T02:30:50;48700.19;;;-149.77;81.60
60055;BME280;45930;53.514;55.904;2023-07-31T02:31:52;48721.97;;;-149.77;80.88
60055;BME280;45930;53.514;55.904;2023-07-31T02:32:53;48710.09;;;-149.77;81.55
60055;BME280;45930;53.514;55.904;2023-07-31T02:33:54;48700.19;;;-149.77;81.13
60055;BME280;45930;53.514;55.904;2023-07-31T02:34:55;48733.88;;;-149.77;79.49
60055;BME280;45930;53.514;55.904;2023-07-31T02:35:55;48791.28;;;-149.77;77.92
60055;BME280;45930;53.514;55.904;2023-07-31T02:36:56;48811.09;;;-149.77;77.44
60055;BME280;45930;53.514;55.904;2023-07-31T02:37:57;48842.78;;;-149.77;77.28
60055;BME280;45930;53.514;55.904;2023-07-31T02:38:58;48852.69;;;-149.77;75.98
60055;BME280;45930;53.514;55.904;2023-07-31T02:39:58;48894.28;;;-149.77;74.77
60055;BME280;45930;53.514;55.904;2023-07-31T02:40:59;48969.56;;;-149.77;73.09
60055;BME280;45930;53.514;55.904;2023-07-31T02:42:00;49009.16;;;-149.77;70.99
60055;BME280;45930;53.514;55.904;2023-07-31T02:43:01;49086.41;;;-149.77;68.47
60055;BME280;45930;53.514;55.904;2023-07-31T02:44:02;49155.75;;;-149.77;67.21
60055;BME280;45930;53.514;55.904;2023-07-31T02:45:03;49165.63;;;-149.77;66.83
60055;BME280;45930;53.514;55.904;2023-07-31T02:46:07;49163.66;;;-149.77;66.48
60055;BME280;45930;53.514;55.904;2023-07-31T02:47:08;49151.78;;;-149.77;65.50
60055;BME280;45930;53.514;55.904;2023-07-31T02:48:09;49195.34;;;-149.77;65.28
60055;BME280;45930;53.514;55.904;2023-07-31T02:49:10;49167.63;;;-149.77;65.91
60055;BME280;45930;53.514;55.904;2023-07-31T02:50:11;49183.47;;;-149.77;65.46
60055;BME280;45930;53.514;55.904;2023-07-31T02:51:11;49221.09;;;-149.77;64.18
60055;BME280;45930;53.514;55.904;2023-07-31T02:52:12;49233.00;;;-149.77;64.25
60055;BME280;45930;53.514;55.904;2023-07-31T02:53:13;49250.81;;;-149.77;63.92
60055;BME280;45930;53.514;55.904;2023-07-31T02:54:14;49262.69;;;-149.77;63.66
60055;BME280;45930;53.514;55.904;2023-07-31T02:55:15;49248.84;;;-149.77;63.91
60055;BME280;45930;53.514;55.904;2023-07-31T02:56:16;49296.38;;;-149.77;63.04
60055;BME280;45930;53.514;55.904;2023-07-31T02:57:16;49292.41;;;-149.77;62.99
60055;BME280;45930;53.514;55.904;2023-07-31T02:58:17;49278.53;;;-149.77;62.73
60055;BME280;45930;53.514;55.904;2023-07-31T02:59:18;49262.69;;;-149.77;63.24
60055;BME280;45930;53.514;55.904;2023-07-31T03:00:19;49258.75;;;-149.77;63.53
60055;BME280;45930;53.514;55.904;2023-07-31T03:01:20;49276.56;;;-149.77;64.02
60055;BME280;45930;53.514;55.904;2023-07-31T03:02:21;49250.81;;;-149.77;64.15
60055;BME280;45930;53.514;55.904;2023-07-31T03:03:21;49244.88;;;-149.77;64.05
60055;BME280;45930;53.514;55.904;2023-07-31T03:04:22;49229.03;;;-149.77;64.27
60055;BME280;45930;53.514;55.904;2023-07-31T03:05:23;49236.94;;;-149.77;64.51
60055;BME280;45930;53.514;55.904;2023-07-31T03:06:24;49207.25;;;-149.77;65.52
60055;BME280;45930;53.514;55.904;2023-07-31T03:07:25;49195.34;;;-149.77;66.13
60055;BME280;45930;53.514;55.904;2023-07-31T03:08:25;49171.59;;;-149.77;67.01
60055;BME280;45930;53.514;55.904;2023-07-31T03:09:26;49131.97;;;-149.77;67.96
60055;BME280;45930;53.514;55.904;2023-07-31T03:10:27;49147.81;;;-149.77;68.42
60055;BME280;45930;53.514;55.904;2023-07-31T03:11:28;49157.72;;;-149.77;68.14
60055;BME280;45930;53.514;55.904;2023-07-31T03:12:29;49175.53;;;-149.77;67.13
60055;BME280;45930;53.514;55.904;2023-07-31T03:13:30;49191.38;;;-149.77;66.33
60055;BME280;45930;53.514;55.904;2023-07-31T03:14:30;49185.44;;;-149.77;66.52
60055;BME280;45930;53.514;55.904;2023-07-31T03:15:31;49195.34;;;-149.77;66.17
60055;BME280;45930;53.514;55.904;2023-07-31T03:16:32;49193.38;;;-149.77;66.38
60055;BME280;45930;53.514;55.904;2023-07-31T03:17:33;49175.53;;;-149.77;66.65
60055;BME280;45930;53.514;55.904;2023-07-31T03:18:34;49163.66;;;-149.77;66.81
60055;BME280;45930;53.514;55.904;2023-07-31T03:19:34;49179.50;;;-149.77;66.86
60055;BME280;45930;53.514;55.904;2023-07-31T03:20:35;49159.69;;;-149.77;67.21
60055;BME280;45930;53.514;55.904;2023-07-31T03:21:36;49145.84;;;-149.77;67.38
60055;BME280;45930;53.514;55.904;2023-07-31T03:22:37;49199.31;;;-149.77;67.53
60055;BME280;45930;53.514;55.904;2023-07-31T03:23:38;49157.72;;;-149.77;67.19
60055;BME280;45930;53.514;55.904;2023-07-31T03:24:39;49167.63;;;-149.77;67.89
60055;BME280;45930;53.514;55.904;2023-07-31T03:25:54;49169.59;;;-149.77;68.10
60055;BME280;45930;53.514;55.904;2023-07-31T03:26:55;49169.59;;;-149.77;67.12
60055;BME280;45930;53.514;55.904;2023-07-31T03:27:56;49215.16;;;-149.77;65.57
60055;BME280;45930;53.514;55.904;2023-07-31T03:28:57;49201.28;;;-149.77;65.92
60055;BME280;45930;53.514;55.904;2023-07-31T03:29:59;49225.06;;;-149.77;65.64
60055;BME280;45930;53.514;55.904;2023-07-31T03:31:00;49219.13;;;-149.77;65.77
60055;BME280;45930;53.514;55.904;2023-07-31T03:32:00;49227.03;;;-149.77;65.68
60055;BME280;45930;53.514;55.904;2023-07-31T03:33:01;49242.91;;;-149.77;65.54
60055;BME280;45930;53.514;55.904;2023-07-31T03:34:02;49201.28;;;-149.77;66.23
60055;BME280;45930;53.514;55.904;2023-07-31T03:35:03;49219.13;;;-149.77;65.94
60055;BME280;45930;53.514;55.904;2023-07-31T03:36:05;49211.19;;;-149.77;66.19
60055;BME280;45930;53.514;55.904;2023-07-31T03:37:06;49221.09;;;-149.77;66.08
60055;BME280;45930;53.514;55.904;2023-07-31T03:38:09;49217.13;;;-149.77;66.08
60055;BME280;45930;53.514;55.904;2023-07-31T03:39:10;49254.78;;;-149.77;64.74
60055;BME280;45930;53.514;55.904;2023-07-31T03:40:11;49276.56;;;-149.77;63.75
60055;BME280;45930;53.514;55.904;2023-07-31T03:41:12;49310.25;;;-149.77;63.05
60055;BME280;45930;53.514;55.904;2023-07-31T03:42:12;49290.44;;;-149.77;63.67
60055;BME280;45930;53.514;55.904;2023-07-31T03:43:14;49290.44;;;-149.77;64.91
60055;BME280;45930;53.514;55.904;2023-07-31T03:44:15;49258.75;;;-149.77;64.81
60055;BME280;45930;53.514;55.904;2023-07-31T03:45:16;49316.19;;;-149.77;62.91
60055;BME280;45930;53.514;55.904;2023-07-31T03:46:17;49343.91;;;-149.77;61.49
60055;BME280;45930;53.514;55.904;2023-07-31T03:47:18;49363.72;;;-149.77;60.59
60055;BME280;45930;53.514;55.904;2023-07-31T03:48:18;49367.69;;;-149.77;60.85
60055;BME280;45930;53.514;55.904;2023-07-31T03:49:19;49381.56;;;-149.77;60.28
60055;BME280;45930;53.514;55.904;2023-07-31T03:50:20;49357.78;;;-149.77;60.37
60055;BME280;45930;53.514;55.904;2023-07-31T03:51:21;49377.59;;;-149.77;60.90
60055;BME280;45930;53.514;55.904;2023-07-31T03:52:22;49365.69;;;-149.77;61.24
60055;BME280;45930;53.514;55.904;2023-07-31T03:53:23;49381.56;;;-149.77;60.35
60055;BME280;45930;53.514;55.904;2023-07-31T03:54:23;49413.25;;;-149.77;59.76
60055;BME280;45930;53.514;55.904;2023-07-31T03:55:24;49397.41;;;-149.77;59.74
60055;BME280;45930;53.514;55.904;2023-07-31T03:56:25;49407.31;;;-149.77;59.85
60055;BME280;45930;53.514;55.904;2023-07-31T03:57:26;49433.06;;;-149.77;58.18
60055;BME280;45930;53.514;55.904;2023-07-31T03:58:27;49435.03;;;-149.77;57.26
60055;BME280;45930;53.514;55.904;2023-07-31T03:59:28;49435.03;;;-149.77;57.33
60055;BME280;45930;53.514;55.904;2023-07-31T04:00:29;49472.66;;;-149.77;55.71
60055;BME280;45930;53.514;55.904;2023-07-31T04:01:30;49504.38;;;-149.77;54.45
60055;BME280;45930;53.514;55.904;2023-07-31T04:02:30;49490.50;;;-149.77;54.04
60055;BME280;45930;53.514;55.904;2023-07-31T04:03:31;49514.28;;;-149.77;54.56
60055;BME280;45930;53.514;55.904;2023-07-31T04:04:32;49500.41;;;-149.77;55.47
60055;BME280;45930;53.514;55.904;2023-07-31T04:05:33;49496.44;;;-149.77;55.84
60055;BME280;45930;53.514;55.904;2023-07-31T04:06:34;49472.66;;;-149.77;55.75
60055;BME280;45930;53.514;55.904;2023-07-31T04:07:35;49512.28;;;-149.77;55.14
60055;BME280;45930;53.514;55.904;2023-07-31T04:08:35;49500.41;;;-149.77;55.01
60055;BME280;45930;53.514;55.904;2023-07-31T04:09:36;49530.13;;;-149.77;55.18
60055;BME280;45930;53.514;55.904;2023-07-31T04:10:37;49500.41;;;-149.77;54.61
60055;BME280;45930;53.514;55.904;2023-07-31T04:11:38;49532.09;;;-149.77;54.28
60055;BME280;45930;53.514;55.904;2023-07-31T04:12:39;49506.34;;;-149.77;53.54
60055;BME280;45930;53.514;55.904;2023-07-31T04:13:40;49512.28;;;-149.77;53.65
60055;BME280;45930;53.514;55.904;2023-07-31T04:14:41;49516.25;;;-149.77;53.84
60055;BME280;45930;53.514;55.904;2023-07-31T04:15:42;49542.00;;;-149.77;54.25
60055;BME280;45930;53.514;55.904;2023-07-31T04:16:42;49551.91;;;-149.77;54.05
60055;BME280;45930;53.514;55.904;2023-07-31T04:17:43;49526.16;;;-149.77;53.64
60055;BME280;45930;53.514;55.904;2023-07-31T04:18:44;49536.06;;;-149.77;52.40
60055;BME280;45930;53.514;55.904;2023-07-31T04:19:45;49567.75;;;-149.77;51.17
60055;BME280;45930;53.514;55.904;2023-07-31T04:20:45;49543.97;;;-149.77;51.46
60055;BME280;45930;53.514;55.904;2023-07-31T04:21:46;49607.38;;;-149.77;51.75
60055;BME280;45930;53.514;55.904;2023-07-31T04:22:47;49595.50;;;-149.77;52.35
60055;BME280;45930;53.514;55.904;2023-07-31T04:23:48;49567.75;;;-149.77;53.26
60055;BME280;45930;53.514;55.904;2023-07-31T04:24:49;49555.88;;;-149.77;53.65
60055;BME280;45930;53.514;55.904;2023-07-31T04:25:51;49567.75;;;-149.77;54.24
60055;BME280;45930;53.514;55.904;2023-07-31T04:26:52;49549.94;;;-149.77;53.04
60055;BME280;45930;53.514;55.904;2023-07-31T04:27:53;49583.59;;;-149.77;53.20
60055;BME280;45930;53.514;55.904;2023-07-31T04:28:54;49587.56;;;-149.77;52.85
60055;BME280;45930;53.514;55.904;2023-07-31T04:29:55;49589.53;;;-149.77;52.55
60055;BME280;45930;53.514;55.904;2023-07-31T04:30:55;49561.81;;;-149.77;52.22
60055;BME280;45930;53.514;55.904;2023-07-31T04:31:56;49569.72;;;-149.77;51.61
60055;BME280;45930;53.514;55.904;2023-07-31T04:32:57;49575.69;;;-149.77;51.13
60055;BME280;45930;53.514;55.904;2023-07-31T04:33:58;49577.66;;;-149.77;50.30
60055;BME280;45930;53.514;55.904;2023-07-31T04:34:59;49549.94;;;-149.77;50.62
60055;BME280;45930;53.514;55.904;2023-07-31T04:36:00;49583.59;;;-149.77;51.15
60055;BME280;45930;53.514;55.904;2023-07-31T04:37:01;49583.59;;;-149.77;51.61
60055;BME280;45930;53.514;55.904;2023-07-31T04:38:02;49573.69;;;-149.77;52.00
60055;BME280;45930;53.514;55.904;2023-07-31T04:39:03;49581.63;;;-149.77;51.90
60055;BME280;45930;53.514;55.904;2023-07-31T04:40:05;49607.38;;;-149.77;52.10
60055;BME280;45930;53.514;55.904;2023-07-31T04:41:05;49553.88;;;-149.77;52.40
60055;BME280;45930;53.514;55.904;2023-07-31T04:42:06;49581.63;;;-149.77;52.06
60055;BME280;45930;53.514;55.904;2023-07-31T04:43:07;49603.41;;;-149.77;51.50
60055;BME280;45930;53.514;55.904;2023-07-31T04:44:08;49603.41;;;-149.77;51.68
60055;BME280;45930;53.514;55.904;2023-07-31T04:45:11;49597.47;;;-149.77;50.91
60055;BME280;45930;53.514;55.904;2023-07-31T04:46:12;49597.47;;;-149.77;50.33
60055;BME280;45930;53.514;55.904;2023-07-31T04:47:13;49611.34;;;-149.77;49.56
60055;BME280;45930;53.514;55.904;2023-07-31T04:48:14;49607.38;;;-149.77;49.08
60055;BME280;45930;53.514;55.904;2023-07-31T04:49:15;49601.44;;;-149.77;49.05
60055;BME280;45930;53.514;55.904;2023-07-31T04:50:16;49595.50;;;-149.77;48.69
60055;BME280;45930;53.514;55.904;2023-07-31T04:51:16;49595.50;;;-149.77;49.18
60055;BME280;45930;53.514;55.904;2023-07-31T04:52:17;49591.53;;;-149.77;48.27
60055;BME280;45930;53.514;55.904;2023-07-31T04:53:18;49607.38;;;-149.77;46.60
60055;BME280;45930;53.514;55.904;2023-07-31T04:54:19;49609.34;;;-149.77;46.24
60055;BME280;45930;53.514;55.904;2023-07-31T04:55:20;49601.44;;;-149.77;45.94
60055;BME280;45930;53.514;55.904;2023-07-31T04:56:21;49619.25;;;-149.77;45.65
60055;BME280;45930;53.514;55.904;2023-07-31T04:57:22;49587.56;;;-149.77;46.19
60055;BME280;45930;53.514;55.904;2023-07-31T04:58:22;49619.25;;;-149.77;46.66
60055;BME280;45930;53.514;55.904;2023-07-31T04:59:23;49633.13;;;-149.77;46.51
60055;BME280;45930;53.514;55.904;2023-07-31T05:00:24;49599.44;;;-149.77;46.58
60055;BME280;45930;53.514;55.904;2023-07-31T05:01:25;49664.81;;;-149.77;46.63
60055;BME280;45930;53.514;55.904;2023-07-31T05:02:26;49648.97;;;-149.77;45.67
60055;BME280;45930;53.514;55.904;2023-07-31T05:03:27;49639.06;;;-149.77;45.30
60055;BME280;45930;53.514;55.904;2023-07-31T05:04:27;49676.72;;;-149.77;46.10
60055;BME280;45930;53.514;55.904;2023-07-31T05:05:28;49680.66;;;-149.77;44.52
60055;BME280;45930;53.514;55.904;2023-07-31T05:06:29;49680.66;;;-149.77;44.20
60055;BME280;45930;53.514;55.904;2023-07-31T05:07:30;49664.81;;;-149.77;44.18
60055;BME280;45930;53.514;55.904;2023-07-31T05:08:31;49670.75;;;-149.77;44.33
60055;BME280;45930;53.514;55.904;2023-07-31T05:09:31;49666.81;;;-149.77;44.72
60055;BME280;45930;53.514;55.904;2023-07-31T05:10:32;49674.72;;;-149.77;44.62
60055;BME280;45930;53.514;55.904;2023-07-31T05:11:33;49698.50;;;-149.77;43.95
60055;BME280;45930;53.514;55.904;2023-07-31T05:12:34;49676.72;;;-149.77;44.48
60055;BME280;45930;53.514;55.904;2023-07-31T05:13:35;49670.75;;;-149.77;44.10
60055;BME280;45930;53.514;55.904;2023-07-31T05:14:35;49692.56;;;-149.77;43.50
60055;BME280;45930;53.514;55.904;2023-07-31T05:15:36;49666.81;;;-149.77;43.89
60055;BME280;45930;53.514;55.904;2023-07-31T05:16:37;49692.56;;;-149.77;43.69
60055;BME280;45930;53.514;55.904;2023-07-31T05:17:38;49678.69;;;-149.77;43.32